sensor_id;sensor_type;location;lat;lon;timestamp;temperature;humidity
6462;DHT22;3264;42.862;25.098;2023-04-28T00:00:53;8.00;99.90
6462;DHT22;3264;42.862;25.098;2023-04-28T00:03:21;7.90;99.90
6462;DHT22;3264;42.862;25.098;2023-04-28T00:05:51;7.90;99.90
6462;DHT22;3264;42.862;25.098;2023-04-28T00:08:19;7.80;99.90
6462;DHT22;3264;42.862;25.098;2023-04-28T00:10:50;7.70;99.90
6462;DHT22;3264;42.862;25.098;2023-04-28T00:13:20;7.90;97.60
6462;DHT22;3264;42.862;25.098;2023-04-28T00:15:49;7.80;99.50
6462;DHT22;3264;42.862;25.098;2023-04-28T00:18:19;7.90;93.50
6462;DHT22;3264;42.862;25.098;2023-04-28T00:20:46;8.00;91.60
6462;DHT22;3264;42.862;25.098;2023-04-28T00:23:18;8.10;92.80
6462;DHT22;3264;42.862;25.098;2023-04-28T00:25:50;8.00;95.90
6462;DHT22;3264;42.862;25.098;2023-04-28T00:28:20;8.00;94.80
6462;DHT22;3264;42.862;25.098;2023-04-28T00:30:51;8.10;92.20
6462;DHT22;3264;42.862;25.098;2023-04-28T00:33:19;8.10;94.00
6462;DHT22;3264;42.862;25.098;2023-04-28T00:36:00;8.00;92.70
6462;DHT22;3264;42.862;25.098;2023-04-28T00:38:33;8.00;91.10
6462;DHT22;3264;42.862;25.098;2023-04-28T00:41:01;8.30;86.50
6462;DHT22;3264;42.862;25.098;2023-04-28T00:43:31;8.30;86.70
6462;DHT22;3264;42.862;25.098;2023-04-28T00:45:59;8.20;88.70
6462;DHT22;3264;42.862;25.098;2023-04-28T00:48:28;8.20;85.80
6462;DHT22;3264;42.862;25.098;2023-04-28T00:51:01;8.20;90.70
6462;DHT22;3264;42.862;25.098;2023-04-28T00:53:34;8.20;90.10
6462;DHT22;3264;42.862;25.098;2023-04-28T00:56:04;8.20;91.60
6462;DHT22;3264;42.862;25.098;2023-04-28T00:58:36;8.10;94.20
6462;DHT22;3264;42.862;25.098;2023-04-28T01:01:07;8.10;92.30
6462;DHT22;3264;42.862;25.098;2023-04-28T01:03:40;8.10;97.00
6462;DHT22;3264;42.862;25.098;2023-04-28T01:06:10;7.90;99.90
6462;DHT22;3264;42.862;25.098;2023-04-28T01:08:41;7.70;99.90
6462;DHT22;3264;42.862;25.098;2023-04-28T01:11:09;7.90;96.70
6462;DHT22;3264;42.862;25.098;2023-04-28T01:13:43;7.90;99.90
6462;DHT22;3264;42.862;25.098;2023-04-28T01:16:12;7.80;99.90
6462;DHT22;3264;42.862;25.098;2023-04-28T01:18:43;7.70;99.90
6462;DHT22;3264;42.862;25.098;2023-04-28T01:21:13;7.60;95.80
6462;DHT22;3264;42.862;25.098;2023-04-28T01:23:46;7.80;93.80
6462;DHT22;3264;42.862;25.098;2023-04-28T01:26:14;7.90;95.50
6462;DHT22;3264;42.862;25.098;2023-04-28T01:28:43;7.90;96.20
6462;DHT22;3264;42.862;25.098;2023-04-28T01:31:11;7.90;94.80
6462;DHT22;3264;42.862;25.098;2023-04-28T01:33:39;7.80;91.60
6462;DHT22;3264;42.862;25.098;2023-04-28T01:36:07;8.00;90.00
6462;DHT22;3264;42.862;25.098;2023-04-28T01:38:35;7.70;95.80
6462;DHT22;3264;42.862;25.098;2023-04-28T01:41:05;7.80;96.40
6462;DHT22;3264;42.862;25.098;2023-04-28T01:43:33;7.60;99.90
6462;DHT22;3264;42.862;25.098;2023-04-28T01:46:10;7.60;99.90
6462;DHT22;3264;42.862;25.098;2023-04-28T01:48:38;7.70;90.80
6462;DHT22;3264;42.862;25.098;2023-04-28T01:51:05;7.70;91.10
6462;DHT22;3264;42.862;25.098;2023-04-28T01:53:33;7.70;90.40
6462;DHT22;3264;42.862;25.098;2023-04-28T01:56:01;7.70;92.10
6462;DHT22;3264;42.862;25.098;2023-04-28T01:58:31;7.80;90.90
6462;DHT22;3264;42.862;25.098;2023-04-28T02:00:59;7.60;93.20
6462;DHT22;3264;42.862;25.098;2023-04-28T02:03:41;7.60;94.70
6462;DHT22;3264;42.862;25.098;2023-04-28T02:06:09;7.60;92.90
6462;DHT22;3264;42.862;25.098;2023-04-28T02:08:37;7.60;91.90
6462;DHT22;3264;42.862;25.098;2023-04-28T02:11:04;7.60;92.00
6462;DHT22;3264;42.862;25.098;2023-04-28T02:13:35;7.50;94.60
6462;DHT22;3264;42.862;25.098;2023-04-28T02:16:03;7.40;96.80
6462;DHT22;3264;42.862;25.098;2023-04-28T02:18:32;7.30;98.40
6462;DHT22;3264;42.862;25.098;2023-04-28T02:21:08;7.00;99.50
6462;DHT22;3264;42.862;25.098;2023-04-28T02:23:38;7.00;99.90
6462;DHT22;3264;42.862;25.098;2023-04-28T02:26:06;6.90;99.90
6462;DHT22;3264;42.862;25.098;2023-04-28T02:28:36;6.80;99.70
6462;DHT22;3264;42.862;25.098;2023-04-28T02:31:12;6.80;99.90
6462;DHT22;3264;42.862;25.098;2023-04-28T02:33:41;6.60;99.90
6462;DHT22;3264;42.862;25.098;2023-04-28T02:36:09;6.50;99.90
6462;DHT22;3264;42.862;25.098;2023-04-28T02:38:38;6.40;99.90
6462;DHT22;3264;42.862;25.098;2023-04-28T02:41:07;6.40;99.90
6462;DHT22;3264;42.862;25.098;2023-04-28T02:43:36;6.30;99.90
6462;DHT22;3264;42.862;25.098;2023-04-28T02:46:05;6.20;99.90
6462;DHT22;3264;42.862;25.098;2023-04-28T02:48:32;6.20;99.90
6462;DHT22;3264;42.862;25.098;2023-04-28T02:51:02;6.20;99.90
6462;DHT22;3264;42.862;25.098;2023-04-28T02:53:31;6.30;99.90
6462;DHT22;3264;42.862;25.098;2023-04-28T02:55:58;6.40;99.90
6462;DHT22;3264;42.862;25.098;2023-04-28T02:58:27;6.30;99.90
6462;DHT22;3264;42.862;25.098;2023-04-28T03:00:57;6.20;99.90
6462;DHT22;3264;42.862;25.098;2023-04-28T03:03:27;6.20;99.90
6462;DHT22;3264;42.862;25.098;2023-04-28T03:05:55;6.20;99.90
6462;DHT22;3264;42.862;25.098;2023-04-28T03:08:23;6.10;99.90
6462;DHT22;3264;42.862;25.098;2023-04-28T03:10:51;6.00;99.90
6462;DHT22;3264;42.862;25.098;2023-04-28T03:13:20;6.00;99.90
6462;DHT22;3264;42.862;25.098;2023-04-28T03:15:48;5.90;99.90
6462;DHT22;3264;42.862;25.098;2023-04-28T03:18:18;5.80;99.90
6462;DHT22;3264;42.862;25.098;2023-04-28T03:20:48;5.70;99.90
6462;DHT22;3264;42.862;25.098;2023-04-28T03:23:16;5.70;99.90
6462;DHT22;3264;42.862;25.098;2023-04-28T03:25:45;5.80;99.90
6462;DHT22;3264;42.862;25.098;2023-04-28T03:28:13;5.80;99.90
6462;DHT22;3264;42.862;25.098;2023-04-28T03:30:42;5.60;99.90
6462;DHT22;3264;42.862;25.098;2023-04-28T03:33:09;5.60;99.90
6462;DHT22;3264;42.862;25.098;2023-04-28T03:35:38;5.50;99.90
6462;DHT22;3264;42.862;25.098;2023-04-28T03:38:07;5.50;99.90
6462;DHT22;3264;42.862;25.098;2023-04-28T03:40:36;5.60;99.90
6462;DHT22;3264;42.862;25.098;2023-04-28T03:43:04;5.70;99.90
6462;DHT22;3264;42.862;25.098;2023-04-28T03:45:32;5.70;99.90
6462;DHT22;3264;42.862;25.098;2023-04-28T03:48:00;5.70;99.90
6462;DHT22;3264;42.862;25.098;2023-04-28T03:50:28;5.70;99.90
6462;DHT22;3264;42.862;25.098;2023-04-28T03:52:57;5.60;99.90
6462;DHT22;3264;42.862;25.098;2023-04-28T03:55:25;5.60;99.90
6462;DHT22;3264;42.862;25.098;2023-04-28T03:57:53;5.70;99.90
6462;DHT22;3264;42.862;25.098;2023-04-28T04:00:22;5.70;99.90
6462;DHT22;3264;42.862;25.098;2023-04-28T04:02:49;5.70;99.90
6462;DHT22;3264;42.862;25.098;2023-04-28T04:05:17;5.70;99.90
6462;DHT22;3264;42.862;25.098;2023-04-28T04:07:46;5.80;99.90
6462;DHT22;3264;42.862;25.098;2023-04-28T04:10:15;5.80;99.90
6462;DHT22;3264;42.862;25.098;2023-04-28T04:12:43;5.70;99.90
6462;DHT22;3264;42.862;25.098;2023-04-28T04:15:12;5.70;99.90
6462;DHT22;3264;42.862;25.098;2023-04-28T04:17:40;5.70;99.90
6462;DHT22;3264;42.862;25.098;2023-04-28T04:20:09;5.70;99.90
6462;DHT22;3264;42.862;25.098;2023-04-28T04:22:37;5.60;99.90
6462;DHT22;3264;42.862;25.098;2023-04-28T04:25:06;5.60;99.90
6462;DHT22;3264;42.862;25.098;2023-04-28T04:27:35;5.70;99.90
6462;DHT22;3264;42.862;25.098;2023-04-28T04:30:05;5.70;99.90
6462;DHT22;3264;42.862;25.098;2023-04-28T04:32:33;5.80;99.90
6462;DHT22;3264;42.862;25.098;2023-04-28T04:35:03;5.80;99.90
6462;DHT22;3264;42.862;25.098;2023-04-28T04:37:32;5.90;99.90
6462;DHT22;3264;42.862;25.098;2023-04-28T04:43:00;6.30;99.90
6462;DHT22;3264;42.862;25.098;2023-04-28T04:45:29;6.30;99.90
6462;DHT22;3264;42.862;25.098;2023-04-28T04:47:58;6.30;99.90
6462;DHT22;3264;42.862;25.098;2023-04-28T04:50:27;6.40;99.90
6462;DHT22;3264;42.862;25.098;2023-04-28T04:52:56;6.40;99.90
6462;DHT22;3264;42.862;25.098;2023-04-28T04:55:23;6.40;99.90
6462;DHT22;3264;42.862;25.098;2023-04-28T04:57:52;6.70;99.90
6462;DHT22;3264;42.862;25.098;2023-04-28T05:00:22;6.60;99.90
6462;DHT22;3264;42.862;25.098;2023-04-28T05:02:51;6.60;99.90
6462;DHT22;3264;42.862;25.098;2023-04-28T05:05:19;6.70;99.90
6462;DHT22;3264;42.862;25.098;2023-04-28T05:07:47;6.60;99.90
6462;DHT22;3264;42.862;25.098;2023-04-28T05:10:16;6.70;99.90
6462;DHT22;3264;42.862;25.098;2023-04-28T05:12:44;6.60;99.90
6462;DHT22;3264;42.862;25.098;2023-04-28T05:15:13;6.60;99.90
6462;DHT22;3264;42.862;25.098;2023-04-28T05:17:42;6.60;99.90
6462;DHT22;3264;42.862;25.098;2023-04-28T05:20:11;6.60;99.90
6462;DHT22;3264;42.862;25.098;2023-04-28T05:22:40;6.80;99.90
6462;DHT22;3264;42.862;25.098;2023-04-28T05:25:09;6.60;99.90
6462;DHT22;3264;42.862;25.098;2023-04-28T05:27:37;6.70;99.90
6462;DHT22;3264;42.862;25.098;2023-04-28T05:30:07;6.90;99.90
6462;DHT22;3264;42.862;25.098;2023-04-28T05:32:36;7.00;99.90
6462;DHT22;3264;42.862;25.098;2023-04-28T05:35:06;7.10;99.90
6462;DHT22;3264;42.862;25.098;2023-04-28T05:37:34;7.30;99.90
6462;DHT22;3264;42.862;25.098;2023-04-28T05:40:13;7.10;99.90
6462;DHT22;3264;42.862;25.098;2023-04-28T05:42:42;7.20;99.90
6462;DHT22;3264;42.862;25.098;2023-04-28T05:45:13;7.40;99.90
6462;DHT22;3264;42.862;25.098;2023-04-28T05:47:42;7.20;99.90
6462;DHT22;3264;42.862;25.098;2023-04-28T05:50:11;7.40;99.90
6462;DHT22;3264;42.862;25.098;2023-04-28T05:52:40;7.50;99.90
6462;DHT22;3264;42.862;25.098;2023-04-28T05:55:09;7.80;99.90
6462;DHT22;3264;42.862;25.098;2023-04-28T05:57:38;7.80;99.90
6462;DHT22;3264;42.862;25.098;2023-04-28T06:00:07;7.90;99.90
6462;DHT22;3264;42.862;25.098;2023-04-28T06:02:36;8.00;99.80
6462;DHT22;3264;42.862;25.098;2023-04-28T06:05:05;8.00;99.50
6462;DHT22;3264;42.862;25.098;2023-04-28T06:07:35;8.00;99.20
6462;DHT22;3264;42.862;25.098;2023-04-28T06:10:05;8.00;98.90
6462;DHT22;3264;42.862;25.098;2023-04-28T06:12:33;8.10;99.90
6462;DHT22;3264;42.862;25.098;2023-04-28T06:15:02;8.20;99.90
6462;DHT22;3264;42.862;25.098;2023-04-28T06:17:30;8.30;99.90
6462;DHT22;3264;42.862;25.098;2023-04-28T06:20:00;8.40;99.90
6462;DHT22;3264;42.862;25.098;2023-04-28T06:22:28;8.30;99.80
6462;DHT22;3264;42.862;25.098;2023-04-28T06:24:58;8.40;97.80
6462;DHT22;3264;42.862;25.098;2023-04-28T06:27:26;8.40;99.40
6462;DHT22;3264;42.862;25.098;2023-04-28T06:29:57;8.50;94.50
6462;DHT22;3264;42.862;25.098;2023-04-28T06:32:25;8.70;96.80
6462;DHT22;3264;42.862;25.098;2023-04-28T06:34:52;8.70;97.20
6462;DHT22;3264;42.862;25.098;2023-04-28T06:37:20;8.80;99.90
6462;DHT22;3264;42.862;25.098;2023-04-28T06:39:49;8.60;97.00
6462;DHT22;3264;42.862;25.098;2023-04-28T06:42:19;8.50;99.70
6462;DHT22;3264;42.862;25.098;2023-04-28T06:44:46;8.50;97.40
6462;DHT22;3264;42.862;25.098;2023-04-28T06:47:17;8.50;99.90
6462;DHT22;3264;42.862;25.098;2023-04-28T06:49:46;8.50;97.20
6462;DHT22;3264;42.862;25.098;2023-04-28T06:52:15;8.60;98.70
6462;DHT22;3264;42.862;25.098;2023-04-28T06:54:44;8.90;98.50
6462;DHT22;3264;42.862;25.098;2023-04-28T06:57:12;8.90;96.90
6462;DHT22;3264;42.862;25.098;2023-04-28T06:59:41;8.80;93.10
6462;DHT22;3264;42.862;25.098;2023-04-28T07:02:11;8.90;93.60
6462;DHT22;3264;42.862;25.098;2023-04-28T07:04:39;8.90;95.10
6462;DHT22;3264;42.862;25.098;2023-04-28T07:07:08;9.00;97.00
6462;DHT22;3264;42.862;25.098;2023-04-28T07:09:37;9.30;97.40
6462;DHT22;3264;42.862;25.098;2023-04-28T07:12:05;9.80;96.60
6462;DHT22;3264;42.862;25.098;2023-04-28T07:14:33;9.80;90.10
6462;DHT22;3264;42.862;25.098;2023-04-28T07:17:02;9.80;90.70
6462;DHT22;3264;42.862;25.098;2023-04-28T07:19:31;10.10;86.40
6462;DHT22;3264;42.862;25.098;2023-04-28T07:21:58;10.50;90.90
6462;DHT22;3264;42.862;25.098;2023-04-28T07:24:27;11.00;89.70
6462;DHT22;3264;42.862;25.098;2023-04-28T07:26:55;10.30;84.30
6462;DHT22;3264;42.862;25.098;2023-04-28T07:29:23;9.60;84.50
6462;DHT22;3264;42.862;25.098;2023-04-28T07:31:54;9.90;85.60
6462;DHT22;3264;42.862;25.098;2023-04-28T07:34:24;10.10;85.30
6462;DHT22;3264;42.862;25.098;2023-04-28T07:36:53;10.20;84.00
6462;DHT22;3264;42.862;25.098;2023-04-28T07:39:22;10.60;87.70
6462;DHT22;3264;42.862;25.098;2023-04-28T07:41:50;11.10;87.40
6462;DHT22;3264;42.862;25.098;2023-04-28T07:44:17;11.10;83.70
6462;DHT22;3264;42.862;25.098;2023-04-28T07:46:46;11.00;84.30
6462;DHT22;3264;42.862;25.098;2023-04-28T07:49:14;11.10;85.40
6462;DHT22;3264;42.862;25.098;2023-04-28T07:51:43;11.10;81.50
6462;DHT22;3264;42.862;25.098;2023-04-28T07:54:13;11.30;84.80
6462;DHT22;3264;42.862;25.098;2023-04-28T07:56:42;11.40;82.60
6462;DHT22;3264;42.862;25.098;2023-04-28T07:59:11;11.00;78.80
6462;DHT22;3264;42.862;25.098;2023-04-28T08:01:40;11.20;80.50
6462;DHT22;3264;42.862;25.098;2023-04-28T08:04:08;11.60;79.50
6462;DHT22;3264;42.862;25.098;2023-04-28T08:06:36;11.80;79.10
6462;DHT22;3264;42.862;25.098;2023-04-28T08:09:08;11.70;77.80
6462;DHT22;3264;42.862;25.098;2023-04-28T08:11:36;12.10;83.20
6462;DHT22;3264;42.862;25.098;2023-04-28T08:14:04;12.10;78.10
6462;DHT22;3264;42.862;25.098;2023-04-28T08:16:33;11.70;79.80
6462;DHT22;3264;42.862;25.098;2023-04-28T08:19:06;11.80;77.60
6462;DHT22;3264;42.862;25.098;2023-04-28T08:21:35;11.60;78.30
6462;DHT22;3264;42.862;25.098;2023-04-28T08:24:03;11.50;78.60
6462;DHT22;3264;42.862;25.098;2023-04-28T08:26:33;11.30;76.60
6462;DHT22;3264;42.862;25.098;2023-04-28T08:29:01;11.40;77.90
6462;DHT22;3264;42.862;25.098;2023-04-28T08:31:29;11.40;77.50
6462;DHT22;3264;42.862;25.098;2023-04-28T08:33:57;11.40;76.20
6462;DHT22;3264;42.862;25.098;2023-04-28T08:36:26;11.70;79.90
6462;DHT22;3264;42.862;25.098;2023-04-28T08:38:59;11.80;83.50
6462;DHT22;3264;42.862;25.098;2023-04-28T08:41:33;11.60;79.90
6462;DHT22;3264;42.862;25.098;2023-04-28T08:44:07;11.60;81.80
6462;DHT22;3264;42.862;25.098;2023-04-28T08:46:40;11.60;79.10
6462;DHT22;3264;42.862;25.098;2023-04-28T08:49:13;11.50;81.80
6462;DHT22;3264;42.862;25.098;2023-04-28T08:51:45;11.80;80.70
6462;DHT22;3264;42.862;25.098;2023-04-28T08:54:14;11.90;77.70
6462;DHT22;3264;42.862;25.098;2023-04-28T08:56:45;11.10;78.00
6462;DHT22;3264;42.862;25.098;2023-04-28T08:59:14;10.80;75.00
6462;DHT22;3264;42.862;25.098;2023-04-28T09:01:43;11.30;76.40
6462;DHT22;3264;42.862;25.098;2023-04-28T09:04:15;11.40;79.50
6462;DHT22;3264;42.862;25.098;2023-04-28T09:06:44;11.80;79.20
6462;DHT22;3264;42.862;25.098;2023-04-28T09:09:20;11.90;77.00
6462;DHT22;3264;42.862;25.098;2023-04-28T09:11:53;12.40;79.20
6462;DHT22;3264;42.862;25.098;2023-04-28T09:14:22;13.00;74.80
6462;DHT22;3264;42.862;25.098;2023-04-28T09:16:50;13.20;77.30
6462;DHT22;3264;42.862;25.098;2023-04-28T09:19:19;12.90;75.60
6462;DHT22;3264;42.862;25.098;2023-04-28T09:21:52;13.40;75.60
6462;DHT22;3264;42.862;25.098;2023-04-28T09:24:28;13.40;74.30
6462;DHT22;3264;42.862;25.098;2023-04-28T09:26:58;12.90;74.70
6462;DHT22;3264;42.862;25.098;2023-04-28T09:29:25;12.90;78.30
6462;DHT22;3264;42.862;25.098;2023-04-28T09:31:53;13.00;72.20
6462;DHT22;3264;42.862;25.098;2023-04-28T09:34:22;14.50;80.40
6462;DHT22;3264;42.862;25.098;2023-04-28T09:36:50;14.80;76.60
6462;DHT22;3264;42.862;25.098;2023-04-28T09:39:29;14.60;73.50
6462;DHT22;3264;42.862;25.098;2023-04-28T09:41:59;15.60;75.30
6462;DHT22;3264;42.862;25.098;2023-04-28T09:44:30;15.40;70.90
6462;DHT22;3264;42.862;25.098;2023-04-28T09:46:59;13.40;69.50
6462;DHT22;3264;42.862;25.098;2023-04-28T09:49:27;14.10;74.10
6462;DHT22;3264;42.862;25.098;2023-04-28T09:52:11;14.00;69.30
6462;DHT22;3264;42.862;25.098;2023-04-28T09:54:40;14.00;76.10
6462;DHT22;3264;42.862;25.098;2023-04-28T09:57:10;14.20;74.00
6462;DHT22;3264;42.862;25.098;2023-04-28T09:59:38;14.40;70.20
6462;DHT22;3264;42.862;25.098;2023-04-28T10:02:08;14.00;71.20
6462;DHT22;3264;42.862;25.098;2023-04-28T10:04:36;14.60;75.90
6462;DHT22;3264;42.862;25.098;2023-04-28T10:07:05;15.00;74.80
6462;DHT22;3264;42.862;25.098;2023-04-28T10:09:33;15.30;74.10
6462;DHT22;3264;42.862;25.098;2023-04-28T10:12:01;13.50;62.10
6462;DHT22;3264;42.862;25.098;2023-04-28T10:14:31;15.40;69.40
6462;DHT22;3264;42.862;25.098;2023-04-28T10:16:59;15.00;67.80
6462;DHT22;3264;42.862;25.098;2023-04-28T10:19:28;14.80;69.00
6462;DHT22;3264;42.862;25.098;2023-04-28T10:22:04;13.90;67.00
6462;DHT22;3264;42.862;25.098;2023-04-28T10:24:49;13.70;71.40
6462;DHT22;3264;42.862;25.098;2023-04-28T10:27:20;13.60;71.40
6462;DHT22;3264;42.862;25.098;2023-04-28T10:30:13;13.60;73.10
6462;DHT22;3264;42.862;25.098;2023-04-28T10:32:41;15.40;79.90
6462;DHT22;3264;42.862;25.098;2023-04-28T10:35:40;14.40;72.20
6462;DHT22;3264;42.862;25.098;2023-04-28T10:38:11;15.60;78.80
6462;DHT22;3264;42.862;25.098;2023-04-28T10:40:41;15.00;70.00
6462;DHT22;3264;42.862;25.098;2023-04-28T10:43:10;15.90;74.40
6462;DHT22;3264;42.862;25.098;2023-04-28T10:46:05;14.90;66.70
6462;DHT22;3264;42.862;25.098;2023-04-28T10:48:55;14.80;71.90
6462;DHT22;3264;42.862;25.098;2023-04-28T10:51:31;14.60;75.40
6462;DHT22;3264;42.862;25.098;2023-04-28T10:54:16;14.00;71.70
6462;DHT22;3264;42.862;25.098;2023-04-28T10:57:19;13.70;72.30
6462;DHT22;3264;42.862;25.098;2023-04-28T10:59:50;13.80;73.50
6462;DHT22;3264;42.862;25.098;2023-04-28T11:02:39;15.30;73.10
6462;DHT22;3264;42.862;25.098;2023-04-28T11:05:18;14.60;70.10
6462;DHT22;3264;42.862;25.098;2023-04-28T11:11:27;13.50;72.20
6462;DHT22;3264;42.862;25.098;2023-04-28T11:14:32;13.60;73.30
6462;DHT22;3264;42.862;25.098;2023-04-28T11:17:02;14.90;67.20
6462;DHT22;3264;42.862;25.098;2023-04-28T11:19:32;15.90;69.60
6462;DHT22;3264;42.862;25.098;2023-04-28T11:22:02;15.20;65.30
6462;DHT22;3264;42.862;25.098;2023-04-28T11:24:30;14.60;70.40
6462;DHT22;3264;42.862;25.098;2023-04-28T11:26:59;15.20;74.60
6462;DHT22;3264;42.862;25.098;2023-04-28T11:29:32;14.40;70.30
6462;DHT22;3264;42.862;25.098;2023-04-28T11:32:01;14.70;74.00
6462;DHT22;3264;42.862;25.098;2023-04-28T11:34:29;15.60;74.60
6462;DHT22;3264;42.862;25.098;2023-04-28T11:36:58;16.30;73.30
6462;DHT22;3264;42.862;25.098;2023-04-28T11:39:28;15.90;67.30
6462;DHT22;3264;42.862;25.098;2023-04-28T11:41:56;15.80;75.20
6462;DHT22;3264;42.862;25.098;2023-04-28T11:44:26;15.60;69.10
6462;DHT22;3264;42.862;25.098;2023-04-28T11:46:56;15.90;70.00
6462;DHT22;3264;42.862;25.098;2023-04-28T11:49:26;15.90;68.80
6462;DHT22;3264;42.862;25.098;2023-04-28T11:51:56;15.10;67.40
6462;DHT22;3264;42.862;25.098;2023-04-28T11:54:26;15.30;70.80
6462;DHT22;3264;42.862;25.098;2023-04-28T11:56:55;15.00;69.80
6462;DHT22;3264;42.862;25.098;2023-04-28T11:59:27;15.30;69.00
6462;DHT22;3264;42.862;25.098;2023-04-28T12:01:58;15.30;69.70
6462;DHT22;3264;42.862;25.098;2023-04-28T12:04:29;15.90;67.20
6462;DHT22;3264;42.862;25.098;2023-04-28T12:07:10;14.80;64.20
6462;DHT22;3264;42.862;25.098;2023-04-28T12:09:40;14.60;62.20
6462;DHT22;3264;42.862;25.098;2023-04-28T12:12:10;15.00;65.50
6462;DHT22;3264;42.862;25.098;2023-04-28T12:14:55;14.90;65.80
6462;DHT22;3264;42.862;25.098;2023-04-28T12:17:25;14.90;66.40
6462;DHT22;3264;42.862;25.098;2023-04-28T12:19:55;15.00;68.70
6462;DHT22;3264;42.862;25.098;2023-04-28T12:22:24;15.00;69.60
6462;DHT22;3264;42.862;25.098;2023-04-28T12:25:16;14.70;69.00
6462;DHT22;3264;42.862;25.098;2023-04-28T12:27:58;15.30;70.80
6462;DHT22;3264;42.862;25.098;2023-04-28T12:30:28;15.20;62.10
6462;DHT22;3264;42.862;25.098;2023-04-28T12:32:59;16.00;67.30
6462;DHT22;3264;42.862;25.098;2023-04-28T12:35:27;16.60;67.10
6462;DHT22;3264;42.862;25.098;2023-04-28T12:37:57;16.90;61.30
6462;DHT22;3264;42.862;25.098;2023-04-28T12:40:25;17.00;63.40
6462;DHT22;3264;42.862;25.098;2023-04-28T12:42:54;17.30;63.80
6462;DHT22;3264;42.862;25.098;2023-04-28T12:45:22;16.30;58.40
6462;DHT22;3264;42.862;25.098;2023-04-28T12:47:51;16.00;61.70
6462;DHT22;3264;42.862;25.098;2023-04-28T12:50:21;15.60;57.10
6462;DHT22;3264;42.862;25.098;2023-04-28T12:52:49;15.10;62.40
6462;DHT22;3264;42.862;25.098;2023-04-28T12:55:17;15.10;66.20
6462;DHT22;3264;42.862;25.098;2023-04-28T12:57:45;14.80;62.10
6462;DHT22;3264;42.862;25.098;2023-04-28T13:00:14;14.90;60.50
6462;DHT22;3264;42.862;25.098;2023-04-28T13:02:43;15.00;64.90
6462;DHT22;3264;42.862;25.098;2023-04-28T13:05:11;14.40;65.00
6462;DHT22;3264;42.862;25.098;2023-04-28T13:07:41;14.30;66.20
6462;DHT22;3264;42.862;25.098;2023-04-28T13:10:10;14.00;63.80
6462;DHT22;3264;42.862;25.098;2023-04-28T13:12:39;14.30;65.90
6462;DHT22;3264;42.862;25.098;2023-04-28T13:15:19;14.40;66.90
6462;DHT22;3264;42.862;25.098;2023-04-28T13:17:50;15.60;70.10
6462;DHT22;3264;42.862;25.098;2023-04-28T13:20:22;16.30;63.40
6462;DHT22;3264;42.862;25.098;2023-04-28T13:22:52;16.80;61.10
6462;DHT22;3264;42.862;25.098;2023-04-28T13:25:20;15.90;63.20
6462;DHT22;3264;42.862;25.098;2023-04-28T13:27:51;15.70;64.00
6462;DHT22;3264;42.862;25.098;2023-04-28T13:30:19;15.20;63.90
6462;DHT22;3264;42.862;25.098;2023-04-28T13:32:47;14.80;65.30
6462;DHT22;3264;42.862;25.098;2023-04-28T13:35:18;14.50;66.80
6462;DHT22;3264;42.862;25.098;2023-04-28T13:37:46;15.20;70.00
6462;DHT22;3264;42.862;25.098;2023-04-28T13:40:15;16.00;66.20
6462;DHT22;3264;42.862;25.098;2023-04-28T13:42:46;16.30;68.20
6462;DHT22;3264;42.862;25.098;2023-04-28T13:45:15;15.80;66.10
6462;DHT22;3264;42.862;25.098;2023-04-28T13:47:43;16.30;68.90
6462;DHT22;3264;42.862;25.098;2023-04-28T13:50:11;16.80;66.70
6462;DHT22;3264;42.862;25.098;2023-04-28T13:52:41;17.10;65.80
6462;DHT22;3264;42.862;25.098;2023-04-28T13:55:10;17.30;67.60
6462;DHT22;3264;42.862;25.098;2023-04-28T13:57:40;16.40;63.60
6462;DHT22;3264;42.862;25.098;2023-04-28T14:00:10;16.30;65.20
6462;DHT22;3264;42.862;25.098;2023-04-28T14:02:39;15.50;64.10
6462;DHT22;3264;42.862;25.098;2023-04-28T14:05:08;15.50;68.20
6462;DHT22;3264;42.862;25.098;2023-04-28T14:07:37;15.70;67.30
6462;DHT22;3264;42.862;25.098;2023-04-28T14:10:10;15.50;65.30
6462;DHT22;3264;42.862;25.098;2023-04-28T14:12:39;15.80;65.00
6462;DHT22;3264;42.862;25.098;2023-04-28T14:15:08;16.00;63.80
6462;DHT22;3264;42.862;25.098;2023-04-28T14:17:36;15.30;63.60
6462;DHT22;3264;42.862;25.098;2023-04-28T14:20:05;15.00;63.20
6462;DHT22;3264;42.862;25.098;2023-04-28T14:22:36;14.70;65.90
6462;DHT22;3264;42.862;25.098;2023-04-28T14:25:06;14.30;66.10
6462;DHT22;3264;42.862;25.098;2023-04-28T14:27:35;14.20;68.50
6462;DHT22;3264;42.862;25.098;2023-04-28T14:30:05;14.40;71.40
6462;DHT22;3264;42.862;25.098;2023-04-28T14:32:35;14.30;75.40
6462;DHT22;3264;42.862;25.098;2023-04-28T14:35:09;14.60;73.90
6462;DHT22;3264;42.862;25.098;2023-04-28T14:37:38;14.80;70.70
6462;DHT22;3264;42.862;25.098;2023-04-28T14:40:08;14.90;70.30
6462;DHT22;3264;42.862;25.098;2023-04-28T14:42:36;14.60;72.70
6462;DHT22;3264;42.862;25.098;2023-04-28T14:45:07;14.20;68.80
6462;DHT22;3264;42.862;25.098;2023-04-28T14:47:37;13.90;74.10
6462;DHT22;3264;42.862;25.098;2023-04-28T14:50:06;14.10;78.20
6462;DHT22;3264;42.862;25.098;2023-04-28T14:52:36;14.00;77.20
6462;DHT22;3264;42.862;25.098;2023-04-28T14:55:04;14.00;71.80
6462;DHT22;3264;42.862;25.098;2023-04-28T14:57:32;14.50;75.30
6462;DHT22;3264;42.862;25.098;2023-04-28T15:00:06;15.00;70.10
6462;DHT22;3264;42.862;25.098;2023-04-28T15:02:35;15.20;72.30
6462;DHT22;3264;42.862;25.098;2023-04-28T15:05:04;14.90;69.10
6462;DHT22;3264;42.862;25.098;2023-04-28T15:07:33;15.00;67.30
6462;DHT22;3264;42.862;25.098;2023-04-28T15:10:01;14.80;69.00
6462;DHT22;3264;42.862;25.098;2023-04-28T15:12:30;14.50;70.40
6462;DHT22;3264;42.862;25.098;2023-04-28T15:15:00;14.60;69.20
6462;DHT22;3264;42.862;25.098;2023-04-28T15:17:29;14.90;71.80
6462;DHT22;3264;42.862;25.098;2023-04-28T15:19:57;14.80;67.00
6462;DHT22;3264;42.862;25.098;2023-04-28T15:22:25;14.70;69.00
6462;DHT22;3264;42.862;25.098;2023-04-28T15:24:54;15.10;69.60
6462;DHT22;3264;42.862;25.098;2023-04-28T15:27:23;14.80;72.20
6462;DHT22;3264;42.862;25.098;2023-04-28T15:29:51;14.90;70.40
6462;DHT22;3264;42.862;25.098;2023-04-28T15:32:19;15.00;67.60
6462;DHT22;3264;42.862;25.098;2023-04-28T15:34:49;15.00;69.20
6462;DHT22;3264;42.862;25.098;2023-04-28T15:37:42;14.50;67.30
6462;DHT22;3264;42.862;25.098;2023-04-28T15:40:13;14.40;71.20
6462;DHT22;3264;42.862;25.098;2023-04-28T15:42:41;14.00;71.10
6462;DHT22;3264;42.862;25.098;2023-04-28T15:45:14;14.00;75.30
6462;DHT22;3264;42.862;25.098;2023-04-28T15:47:43;13.70;74.30
6462;DHT22;3264;42.862;25.098;2023-04-28T15:50:14;13.80;73.10
6462;DHT22;3264;42.862;25.098;2023-04-28T15:52:42;13.80;78.60
6462;DHT22;3264;42.862;25.098;2023-04-28T15:55:12;13.80;76.90
6462;DHT22;3264;42.862;25.098;2023-04-28T15:57:40;13.50;76.20
6462;DHT22;3264;42.862;25.098;2023-04-28T16:00:10;13.50;80.40
6462;DHT22;3264;42.862;25.098;2023-04-28T16:02:39;13.30;77.20
6462;DHT22;3264;42.862;25.098;2023-04-28T16:05:09;13.10;83.70
6462;DHT22;3264;42.862;25.098;2023-04-28T16:07:39;13.20;82.80
6462;DHT22;3264;42.862;25.098;2023-04-28T16:10:11;13.20;81.60
6462;DHT22;3264;42.862;25.098;2023-04-28T16:12:39;13.20;87.70
6462;DHT22;3264;42.862;25.098;2023-04-28T16:15:10;13.10;87.70
6462;DHT22;3264;42.862;25.098;2023-04-28T16:17:40;13.10;91.00